sensor_id;sensor_type;location;lat;lon;timestamp;pressure;altitude;pressure_sealevel;temperature;humidity
57374;BME280;43964;53.890;25.340;2022-07-05T00:00:34;1023.4;;;23;58.5
57374;BME280;43964;53.890;25.340;2022-07-05T00:05:35;1023.4;;;23;59.5
57374;BME280;43964;53.890;25.340;2022-07-05T00:10:35;1023.4;;;23;59.5
57374;BME280;43964;53.890;25.340;2022-07-05T00:15:34;1023.4;;;23;59.6
57374;BME280;43964;53.890;25.340;2022-07-05T00:20:34;1023.4;;;23.2;59.1
57374;BME280;43964;53.890;25.340;2022-07-05T00:25:34;1023.4;;;23.4;58.8
57374;BME280;43964;53.890;25.340;2022-07-05T00:30:34;1023.4;;;23.5;58.6
57374;BME280;43964;53.890;25.340;2022-07-05T00:35:34;1023.5;;;23.4;59.1
57374;BME280;43964;53.890;25.340;2022-07-05T00:40:34;1023.5;;;23.3;59.4
57374;BME280;43964;53.890;25.340;2022-07-05T00:45:34;1023.6;;;23.2;59.3
57374;BME280;43964;53.890;25.340;2022-07-05T00:50:34;1023.6;;;23.1;59.6
57374;BME280;43964;53.890;25.340;2022-07-05T00:55:34;1023.6;;;23.1;59.5
57374;BME280;43964;53.890;25.340;2022-07-05T01:00:34;1023.6;;;23.1;59.4
57374;BME280;43964;53.890;25.340;2022-07-05T01:05:34;1023.6;;;23;58.9
57374;BME280;43964;53.890;25.340;2022-07-05T01:10:34;1023.6;;;23;58.9
57374;BME280;43964;53.890;25.340;2022-07-05T01:15:34;1023.6;;;22.7;59.7
57374;BME280;43964;53.890;25.340;2022-07-05T01:20:35;1023.6;;;22.6;60.3
57374;BME280;43964;53.890;25.340;2022-07-05T01:25:34;1023.6;;;22.7;60.1
57374;BME280;43964;53.890;25.340;2022-07-05T01:30:34;1023.6;;;22.8;59.7
57374;BME280;43964;53.890;25.340;2022-07-05T01:35:35;1023.5;;;22.8;59.9
57374;BME280;43964;53.890;25.340;2022-07-05T01:40:34;1023.5;;;22.7;60.1
57374;BME280;43964;53.890;25.340;2022-07-05T01:45:34;1023.5;;;22.8;60.1
57374;BME280;43964;53.890;25.340;2022-07-05T01:50:36;1023.5;;;22.9;59.7
57374;BME280;43964;53.890;25.340;2022-07-05T01:55:34;1023.5;;;22.8;59.4
57374;BME280;43964;53.890;25.340;2022-07-05T02:00:52;1023.5;;;22.8;59.4
57374;BME280;43964;53.890;25.340;2022-07-05T02:05:34;1023.6;;;22.9;59.2
57374;BME280;43964;53.890;25.340;2022-07-05T02:10:35;1023.5;;;23;58.8
57374;BME280;43964;53.890;25.340;2022-07-05T02:15:35;1023.6;;;23.2;58.1
57374;BME280;43964;53.890;25.340;2022-07-05T02:20:34;1023.5;;;23.4;57.6
57374;BME280;43964;53.890;25.340;2022-07-05T02:25:34;1023.6;;;23.5;57
57374;BME280;43964;53.890;25.340;2022-07-05T02:30:34;1023.7;;;24.2;55.7
57374;BME280;43964;53.890;25.340;2022-07-05T02:35:34;1023.6;;;25.8;51.3
57374;BME280;43964;53.890;25.340;2022-07-05T02:40:34;1023.6;;;27.9;45.3
57374;BME280;43964;53.890;25.340;2022-07-05T02:45:34;1023.6;;;29.1;42.7
57374;BME280;43964;53.890;25.340;2022-07-05T02:50:34;1023.6;;;29.1;42.7
57374;BME280;43964;53.890;25.340;2022-07-05T02:55:34;1023.6;;;29.1;42.7
57374;BME280;43964;53.890;25.340;2022-07-05T03:00:34;1023.7;;;35;35.9
57374;BME280;43964;53.890;25.340;2022-07-05T03:05:34;1023.7;;;35;35.9
57374;BME280;43964;53.890;25.340;2022-07-05T03:10:34;1023.8;;;36.7;28.1
57374;BME280;43964;53.890;25.340;2022-07-05T03:15:34;1023.8;;;38;27.1
57374;BME280;43964;53.890;25.340;2022-07-05T03:20:34;1023.9;;;39.7;27.1
57374;BME280;43964;53.890;25.340;2022-07-05T03:25:34;1023.9;;;40.8;24.6
57374;BME280;43964;53.890;25.340;2022-07-05T03:30:34;1024;;;41.2;21.9
57374;BME280;43964;53.890;25.340;2022-07-05T03:35:34;1024.1;;;42.1;20.9
57374;BME280;43964;53.890;25.340;2022-07-05T03:40:34;1024.1;;;43.1;19.7
57374;BME280;43964;53.890;25.340;2022-07-05T03:45:34;1024.1;;;43.9;18.8
57374;BME280;43964;53.890;25.340;2022-07-05T03:50:34;1024.1;;;43.9;18.8
57374;BME280;43964;53.890;25.340;2022-07-05T03:55:34;1024.1;;;43.9;18.8
57374;BME280;43964;53.890;25.340;2022-07-05T04:00:34;1024.2;;;47;15.6
57374;BME280;43964;53.890;25.340;2022-07-05T04:05:34;1024.2;;;47.6;15
57374;BME280;43964;53.890;25.340;2022-07-05T04:10:34;1024.2;;;48.3;14.3
57374;BME280;43964;53.890;25.340;2022-07-05T04:15:34;1024.3;;;49.5;14.2
57374;BME280;43964;53.890;25.340;2022-07-05T04:20:34;1024.3;;;49.9;13.8
57374;BME280;43964;53.890;25.340;2022-07-05T04:25:34;1024.3;;;50.4;13.6
57374;BME280;43964;53.890;25.340;2022-07-05T04:30:34;1024.3;;;51.1;13.2
57374;BME280;43964;53.890;25.340;2022-07-05T04:35:34;1024.3;;;51.4;12.9
57374;BME280;43964;53.890;25.340;2022-07-05T04:40:34;1024.3;;;51.6;12.6
57374;BME280;43964;53.890;25.340;2022-07-05T04:45:34;1024.2;;;51.7;11.7
57374;BME280;43964;53.890;25.340;2022-07-05T04:50:34;1024.2;;;51.3;12.1
57374;BME280;43964;53.890;25.340;2022-07-05T04:55:34;1024.2;;;51.3;12.1
57374;BME280;43964;53.890;25.340;2022-07-05T05:00:34;1024.1;;;52.5;11.9
57374;BME280;43964;53.890;25.340;2022-07-05T05:05:34;1024.1;;;52.5;11.9
57374;BME280;43964;53.890;25.340;2022-07-05T05:10:34;1024.1;;;52.5;11.9
57374;BME280;43964;53.890;25.340;2022-07-05T05:15:34;1024.1;;;52.5;11.9
57374;BME280;43964;53.890;25.340;2022-07-05T05:20:34;1024.1;;;52.5;11.9
57374;BME280;43964;53.890;25.340;2022-07-05T05:25:34;1024.2;;;56.8;10.5
57374;BME280;43964;53.890;25.340;2022-07-05T05:30:34;1024.2;;;56.8;10.5
57374;BME280;43964;53.890;25.340;2022-07-05T05:35:34;1024.2;;;56.8;10.5
57374;BME280;43964;53.890;25.340;2022-07-05T05:40:34;1024.2;;;56.8;10.5
57374;BME280;43964;53.890;25.340;2022-07-05T05:45:34;1024.2;;;54.6;9.7
57374;BME280;43964;53.890;25.340;2022-07-05T05:50:35;1024.2;;;54.6;9.7
57374;BME280;43964;53.890;25.340;2022-07-05T05:55:34;1024.2;;;54.6;9.7
57374;BME280;43964;53.890;25.340;2022-07-05T06:00:34;1024.2;;;54.6;9.7
57374;BME280;43964;53.890;25.340;2022-07-05T06:05:34;1024.2;;;41.8;18.8
57374;BME280;43964;53.890;25.340;2022-07-05T06:10:35;1024.2;;;41.8;18.8
57374;BME280;43964;53.890;25.340;2022-07-05T06:15:35;1024.2;;;41.8;18.8
57374;BME280;43964;53.890;25.340;2022-07-05T06:20:35;1024.3;;;37.3;22.4
57374;BME280;43964;53.890;25.340;2022-07-05T06:25:34;1024.3;;;37.3;22.4
57374;BME280;43964;53.890;25.340;2022-07-05T06:30:36;1024.3;;;37.3;22.4
57374;BME280;43964;53.890;25.340;2022-07-05T06:35:35;1024.3;;;37.3;22.4
57374;BME280;43964;53.890;25.340;2022-07-05T06:40:36;1024.3;;;37.3;22.4
57374;BME280;43964;53.890;25.340;2022-07-05T06:45:35;1024.3;;;37.3;22.4
57374;BME280;43964;53.890;25.340;2022-07-05T06:50:36;1024.4;;;34.7;27.9
57374;BME280;43964;53.890;25.340;2022-07-05T06:55:34;1024.4;;;34.7;28.3
57374;BME280;43964;53.890;25.340;2022-07-05T07:00:34;1024.4;;;34.9;28.7
57374;BME280;43964;53.890;25.340;2022-07-05T07:05:34;1024.4;;;34.9;29.5
57374;BME280;43964;53.890;25.340;2022-07-05T07:10:34;1024.4;;;35;29.3
57374;BME280;43964;53.890;25.340;2022-07-05T07:15:34;1024.4;;;35;28.5
57374;BME280;43964;53.890;25.340;2022-07-05T07:20:34;1024.4;;;34.8;28.6
57374;BME280;43964;53.890;25.340;2022-07-05T07:25:34;1024.4;;;34.6;28.8
57374;BME280;43964;53.890;25.340;2022-07-05T07:30:34;1024.4;;;34.6;28.8
57374;BME280;43964;53.890;25.340;2022-07-05T07:35:34;1024.5;;;34.6;29.4
57374;BME280;43964;53.890;25.340;2022-07-05T07:40:34;1024.4;;;34.6;28.7
57374;BME280;43964;53.890;25.340;2022-07-05T07:45:34;1024.4;;;34.6;28.7
57374;BME280;43964;53.890;25.340;2022-07-05T07:50:35;1024.4;;;34.6;28.7
57374;BME280;43964;53.890;25.340;2022-07-05T07:55:34;1024.4;;;34.6;28.7
57374;BME280;43964;53.890;25.340;2022-07-05T08:00:34;1024.4;;;34.6;28.7
57374;BME280;43964;53.890;25.340;2022-07-05T08:05:34;1024.4;;;34.2;29.8
57374;BME280;43964;53.890;25.340;2022-07-05T08:10:34;1024.5;;;34.3;29.3
57374;BME280;43964;53.890;25.340;2022-07-05T08:15:34;1024.5;;;34.3;29.3
57374;BME280;43964;53.890;25.340;2022-07-05T08:20:34;1024.5;;;34.3;29.3
57374;BME280;43964;53.890;25.340;2022-07-05T08:25:34;1024.5;;;34.3;29.3
57374;BME280;43964;53.890;25.340;2022-07-05T08:30:34;1024.5;;;34.3;29.3
57374;BME280;43964;53.890;25.340;2022-07-05T08:35:34;1024.5;;;34.3;29.3
57374;BME280;43964;53.890;25.340;2022-07-05T08:40:36;1024.5;;;34.3;29.3
57374;BME280;43964;53.890;25.340;2022-07-05T08:45:34;1024.5;;;34.3;29.3
57374;BME280;43964;53.890;25.340;2022-07-05T08:50:35;1024.5;;;34.3;29.3
57374;BME280;43964;53.890;25.340;2022-07-05T08:55:34;1024.5;;;34.3;29.3
57374;BME280;43964;53.890;25.340;2022-07-05T09:00:36;1024.5;;;34.3;29.3
57374;BME280;43964;53.890;25.340;2022-07-05T09:05:36;1024.5;;;34.3;29.3
57374;BME280;43964;53.890;25.340;2022-07-05T09:10:34;1024.6;;;33.3;31
57374;BME280;43964;53.890;25.340;2022-07-05T09:15:37;1024.6;;;33.3;31.1
57374;BME280;43964;53.890;25.340;2022-07-05T09:20:34;1024.6;;;33.3;31.1
57374;BME280;43964;53.890;25.340;2022-07-05T09:25:34;1024.6;;;33.3;31.1
57374;BME280;43964;53.890;25.340;2022-07-05T09:30:35;1024.7;;;33.4;30.9
57374;BME280;43964;53.890;25.340;2022-07-05T09:35:43;1024.7;;;33.4;30.9
57374;BME280;43964;53.890;25.340;2022-07-05T09:40:45;1024.7;;;33.1;30.9
57374;BME280;43964;53.890;25.340;2022-07-05T09:45:34;1024.7;;;32.6;32
57374;BME280;43964;53.890;25.340;2022-07-05T09:50:35;1024.7;;;32.6;32
57374;BME280;43964;53.890;25.340;2022-07-05T09:55:34;1024.7;;;32.6;32
57374;BME280;43964;53.890;25.340;2022-07-05T10:00:34;1024.7;;;32.6;32
57374;BME280;43964;53.890;25.340;2022-07-05T10:05:34;1024.6;;;32.8;33.5
57374;BME280;43964;53.890;25.340;2022-07-05T10:10:34;1024.5;;;33;32.1
57374;BME280;43964;53.890;25.340;2022-07-05T10:15:35;1024.5;;;33;32.1
57374;BME280;43964;53.890;25.340;2022-07-05T10:20:38;1024.5;;;33;32.1
57374;BME280;43964;53.890;25.340;2022-07-05T10:25:35;1024.7;;;32.9;32.5
57374;BME280;43964;53.890;25.340;2022-07-05T10:30:35;1024.7;;;32.8;33
57374;BME280;43964;53.890;25.340;2022-07-05T10:35:34;1024.6;;;33.2;32.6
57374;BME280;43964;53.890;25.340;2022-07-05T10:40:34;1024.6;;;33.2;32.3
57374;BME280;43964;53.890;25.340;2022-07-05T10:45:35;1024.6;;;33.2;32.5
57374;BME280;43964;53.890;25.340;2022-07-05T10:51:40;1024.6;;;33.2;32.5
57374;BME280;43964;53.890;25.340;2022-07-05T10:55:51;1024.6;;;33.2;32.5
57374;BME280;43964;53.890;25.340;2022-07-05T11:00:34;1024.6;;;33.2;32.5
57374;BME280;43964;53.890;25.340;2022-07-05T11:05:35;1024.5;;;33;32.6
57374;BME280;43964;53.890;25.340;2022-07-05T11:10:34;1024.5;;;33;32.6
57374;BME280;43964;53.890;25.340;2022-07-05T11:15:34;1024.5;;;33;32.6
57374;BME280;43964;53.890;25.340;2022-07-05T11:20:34;1024.4;;;32.5;33.8
57374;BME280;43964;53.890;25.340;2022-07-05T11:25:35;1024.4;;;32.5;33.8
57374;BME280;43964;53.890;25.340;2022-07-05T11:30:51;1024.4;;;32.5;33.8
57374;BME280;43964;53.890;25.340;2022-07-05T11:35:34;1024.4;;;32.5;33.8
57374;BME280;43964;53.890;25.340;2022-07-05T11:40:35;1024.5;;;33.3;32.4
57374;BME280;43964;53.890;25.340;2022-07-05T11:45:34;1024.5;;;33.3;32.4
57374;BME280;43964;53.890;25.340;2022-07-05T11:50:34;1024.5;;;33.3;32.4
57374;BME280;43964;53.890;25.340;2022-07-05T11:55:34;1024.5;;;33.3;32.4
57374;BME280;43964;53.890;25.340;2022-07-05T12:00:35;1024.5;;;33.3;32.4
57374;BME280;43964;53.890;25.340;2022-07-05T12:05:34;1024.5;;;33.3;32.4
57374;BME280;43964;53.890;25.340;2022-07-05T12:10:35;1024.5;;;33.3;32.4
57374;BME280;43964;53.890;25.340;2022-07-05T12:15:35;1024.5;;;33.3;32.4
57374;BME280;43964;53.890;25.340;2022-07-05T12:20:35;1024.5;;;33.3;32.4
57374;BME280;43964;53.890;25.340;2022-07-05T12:25:34;1024.4;;;32;33.5
57374;BME280;43964;53.890;25.340;2022-07-05T12:30:34;1024.4;;;31.4;34.5
57374;BME280;43964;53.890;25.340;2022-07-05T12:35:36;1024.3;;;31.3;34.9
57374;BME280;43964;53.890;25.340;2022-07-05T12:40:35;1024.3;;;31.1;35.4
57374;BME280;43964;53.890;25.340;2022-07-05T12:45:35;1024.3;;;31.2;35.6
57374;BME280;43964;53.890;25.340;2022-07-05T12:50:51;1024.3;;;31.4;35.5
57374;BME280;43964;53.890;25.340;2022-07-05T12:55:35;1024.3;;;31.4;35.5
57374;BME280;43964;53.890;25.340;2022-07-05T13:00:34;1024.3;;;31.4;35.5
57374;BME280;43964;53.890;25.340;2022-07-05T13:05:34;1024.3;;;31.1;36.3
57374;BME280;43964;53.890;25.340;2022-07-05T13:10:34;1024.3;;;31.3;36
57374;BME280;43964;53.890;25.340;2022-07-05T13:15:35;1024.3;;;31.6;35.6
57374;BME280;43964;53.890;25.340;2022-07-05T13:20:34;1024.3;;;31.2;35.9
57374;BME280;43964;53.890;25.340;2022-07-05T13:25:34;1024.3;;;31.4;35.8
57374;BME280;43964;53.890;25.340;2022-07-05T13:30:34;1024.3;;;31.5;35.8
57374;BME280;43964;53.890;25.340;2022-07-05T13:35:34;1024.3;;;30.9;35.9
57374;BME280;43964;53.890;25.340;2022-07-05T13:40:34;1024.3;;;30.9;35.9
57374;BME280;43964;53.890;25.340;2022-07-05T13:45:34;1024.3;;;30.9;35.9
57374;BME280;43964;53.890;25.340;2022-07-05T13:50:34;1024.3;;;30.9;35.9
57374;BME280;43964;53.890;25.340;2022-07-05T13:55:34;1024.2;;;30.8;36.2
57374;BME280;43964;53.890;25.340;2022-07-05T14:00:34;1024.2;;;30.8;36.2
57374;BME280;43964;53.890;25.340;2022-07-05T14:05:34;1024.2;;;30.8;36.2
57374;BME280;43964;53.890;25.340;2022-07-05T14:10:34;1024.3;;;30.4;36.4
57374;BME280;43964;53.890;25.340;2022-07-05T14:15:34;1024.3;;;30.4;36.5
57374;BME280;43964;53.890;25.340;2022-07-05T14:20:34;1024.4;;;30.7;36.1
57374;BME280;43964;53.890;25.340;2022-07-05T14:25:35;1024.4;;;30.7;36.2
57374;BME280;43964;53.890;25.340;2022-07-05T14:30:35;1024.3;;;31.1;35.2
57374;BME280;43964;53.890;25.340;2022-07-05T14:35:34;1024.3;;;30.8;35.8
57374;BME280;43964;53.890;25.340;2022-07-05T14:40:35;1024.3;;;31.1;35.7
57374;BME280;43964;53.890;25.340;2022-07-05T14:45:34;1024.3;;;31.1;35.7
57374;BME280;43964;53.890;25.340;2022-07-05T14:50:34;1024.3;;;30.4;35.6
57374;BME280;43964;53.890;25.340;2022-07-05T14:55:35;1024.3;;;30.2;37
57374;BME280;43964;53.890;25.340;2022-07-05T15:00:34;1024.3;;;30.3;35.9
57374;BME280;43964;53.890;25.340;2022-07-05T15:05:35;1024.4;;;30.1;35.4
57374;BME280;43964;53.890;25.340;2022-07-05T15:10:34;1024.5;;;29.5;37.6
57374;BME280;43964;53.890;25.340;2022-07-05T15:15:34;1024.5;;;29.4;36.9
57374;BME280;43964;53.890;25.340;2022-07-05T15:20:34;1024.4;;;29.5;36.6
57374;BME280;43964;53.890;25.340;2022-07-05T15:25:34;1024.4;;;29.6;37.2
57374;BME280;43964;53.890;25.340;2022-07-05T15:30:34;1024.4;;;29.7;36.7
57374;BME280;43964;53.890;25.340;2022-07-05T15:35:34;1024.3;;;29.3;37.1
57374;BME280;43964;53.890;25.340;2022-07-05T15:40:34;1024.4;;;29.5;36.6
57374;BME280;43964;53.890;25.340;2022-07-05T15:45:34;1024.3;;;29.4;36.7
57374;BME280;43964;53.890;25.340;2022-07-05T15:50:34;1024.3;;;29.4;36.7
57374;BME280;43964;53.890;25.340;2022-07-05T15:55:34;1024.3;;;29;37.8
57374;BME280;43964;53.890;25.340;2022-07-05T16:00:34;1024.2;;;28.8;37.3
57374;BME280;43964;53.890;25.340;2022-07-05T16:05:34;1024.2;;;28.8;37.5
57374;BME280;43964;53.890;25.340;2022-07-05T16:10:34;1024.2;;;28.8;37.5
57374;BME280;43964;53.890;25.340;2022-07-05T16:15:35;1024.2;;;28.8;37.5
57374;BME280;43964;53.890;25.340;2022-07-05T16:20:34;1024.2;;;28.8;37.5
57374;BME280;43964;53.890;25.340;2022-07-05T16:25:34;1024.2;;;28.8;37.5
57374;BME280;43964;53.890;25.340;2022-07-05T16:30:34;1024.2;;;28.4;38.5
57374;BME280;43964;53.890;25.340;2022-07-05T16:35:34;1024.2;;;28.4;38.5
57374;BME280;43964;53.890;25.340;2022-07-05T16:40:34;1024.2;;;28.4;38.5
57374;BME280;43964;53.890;25.340;2022-07-05T16:45:34;1024.2;;;28.4;38.5
57374;BME280;43964;53.890;25.340;2022-07-05T16:50:34;1024.1;;;28;38.9
57374;BME280;43964;53.890;25.340;2022-07-05T16:55:34;1024.3;;;27.8;39.3
57374;BME280;43964;53.890;25.340;2022-07-05T17:00:34;1024.3;;;27.6;39
57374;BME280;43964;53.890;25.340;2022-07-05T17:05:34;1024.3;;;27.6;38.8
57374;BME280;43964;53.890;25.340;2022-07-05T17:10:34;1024.3;;;27.3;39.6
57374;BME280;43964;53.890;25.340;2022-07-05T17:15:34;1024.3;;;27.3;39.6
57374;BME280;43964;53.890;25.340;2022-07-05T17:20:34;1024.3;;;27.2;40.2
57374;BME280;43964;53.890;25.340;2022-07-05T17:25:34;1024.2;;;27.2;40.2
57374;BME280;43964;53.890;25.340;2022-07-05T17:30:34;1024.2;;;27;41.1
57374;BME280;43964;53.890;25.340;2022-07-05T17:35:34;1024.2;;;27;41.1
57374;BME280;43964;53.890;25.340;2022-07-05T17:40:34;1024.2;;;27;40.4
57374;BME280;43964;53.890;25.340;2022-07-05T17:45:34;1024.3;;;26.8;40.4
57374;BME280;43964;53.890;25.340;2022-07-05T17:50:34;1024.2;;;26.6;41
57374;BME280;43964;53.890;25.340;2022-07-05T17:55:34;1024.2;;;26.5;41.8
57374;BME280;43964;53.890;25.340;2022-07-05T18:00:35;1024.2;;;26.4;41.7
57374;BME280;43964;53.890;25.340;2022-07-05T18:05:34;1024.2;;;26.3;42
57374;BME280;43964;53.890;25.340;2022-07-05T18:10:34;1024.2;;;26.1;42.8
57374;BME280;43964;53.890;25.340;2022-07-05T18:15:34;1024.2;;;25.9;41.4
57374;BME280;43964;53.890;25.340;2022-07-05T18:20:35;1024.3;;;25.6;42.3
57374;BME280;43964;53.890;25.340;2022-07-05T18:25:34;1024.3;;;25.6;42.3
57374;BME280;43964;53.890;25.340;2022-07-05T18:30:35;1024.3;;;24.9;44.1
57374;BME280;43964;53.890;25.340;2022-07-05T18:35:34;1024.3;;;25;45.2
57374;BME280;43964;53.890;25.340;2022-07-05T18:40:35;1024.4;;;25.1;44.3
57374;BME280;43964;53.890;25.340;2022-07-05T18:45:34;1024.4;;;25.1;44.3
57374;BME280;43964;53.890;25.340;2022-07-05T18:50:34;1024.5;;;25.1;44.4
57374;BME280;43964;53.890;25.340;2022-07-05T18:55:34;1024.5;;;25.1;44.4
57374;BME280;43964;53.890;25.340;2022-07-05T19:00:34;1024.5;;;25.1;44.4
57374;BME280;43964;53.890;25.340;2022-07-05T19:05:34;1024.5;;;24.7;43.9
57374;BME280;43964;53.890;25.340;2022-07-05T19:10:34;1024.5;;;24.6;44.9
57374;BME280;43964;53.890;25.340;2022-07-05T19:15:34;1024.6;;;24.6;45.3
57374;BME280;43964;53.890;25.340;2022-07-05T19:20:34;1024.6;;;24.6;45.7
57374;BME280;43964;53.890;25.340;2022-07-05T19:25:34;1024.6;;;24.7;45.8
57374;BME280;43964;53.890;25.340;2022-07-05T19:30:35;1024.7;;;24.7;44.6
57374;BME280;43964;53.890;25.340;2022-07-05T19:35:35;1024.8;;;24.7;44.7
57374;BME280;43964;53.890;25.340;2022-07-05T19:40:34;1024.7;;;24.7;45.1
57374;BME280;43964;53.890;25.340;2022-07-05T19:45:34;1024.7;;;24.6;45
57374;BME280;43964;53.890;25.340;2022-07-05T19:50:34;1024.7;;;24.6;45
57374;BME280;43964;53.890;25.340;2022-07-05T19:55:34;1024.7;;;24.5;45.3
57374;BME280;43964;53.890;25.340;2022-07-05T20:00:34;1024.7;;;24.5;45.3
57374;BME280;43964;53.890;25.340;2022-07-05T20:05:35;1024.7;;;24.5;45.4
57374;BME280;43964;53.890;25.340;2022-07-05T20:10:34;1024.6;;;24.6;45.3
57374;BME280;43964;53.890;25.340;2022-07-05T20:15:34;1024.5;;;24.6;45.1
57374;BME280;43964;53.890;25.340;2022-07-05T20:20:34;1024.5;;;24.3;45.5
57374;BME280;43964;53.890;25.340;2022-07-05T20:25:34;1024.5;;;24.3;45.5
57374;BME280;43964;53.890;25.340;2022-07-05T20:30:34;1024.4;;;24.4;45.4
57374;BME280;43964;53.890;25.340;2022-07-05T20:35:34;1024.4;;;24.3;45.3
57374;BME280;43964;53.890;25.340;2022-07-05T20:40:35;1024.4;;;24.1;45
57374;BME280;43964;53.890;25.340;2022-07-05T20:45:34;1024.4;;;23.8;45.7
57374;BME280;43964;53.890;25.340;2022-07-05T20:50:34;1024.4;;;23.6;46.2
57374;BME280;43964;53.890;25.340;2022-07-05T20:55:34;1024.4;;;23.4;46.2
57374;BME280;43964;53.890;25.340;2022-07-05T21:00:34;1024.4;;;23.2;46.4
57374;BME280;43964;53.890;25.340;2022-07-05T21:05:34;1024.4;;;23;47.6
57374;BME280;43964;53.890;25.340;2022-07-05T21:10:34;1024.4;;;22.7;48.8
57374;BME280;43964;53.890;25.340;2022-07-05T21:15:34;1024.4;;;22.7;48.9
57374;BME280;43964;53.890;25.340;2022-07-05T21:20:34;1024.4;;;22.6;49
57374;BME280;43964;53.890;25.340;2022-07-05T21:25:34;1024.4;;;22.4;50.2
57374;BME280;43964;53.890;25.340;2022-07-05T21:30:34;1024.4;;;22.1;50.8
57374;BME280;43964;53.890;25.340;2022-07-05T21:35:34;1024.4;;;22;50.9
57374;BME280;43964;53.890;25.340;2022-07-05T21:40:34;1024.3;;;22;50.7
57374;BME280;43964;53.890;25.340;2022-07-05T21:45:34;1024.3;;;21.9;51.4
57374;BME280;43964;53.890;25.340;2022-07-05T21:50:35;1024.3;;;21.9;51.4
57374;BME280;43964;53.890;25.340;2022-07-05T21:55:34;1024.3;;;21.6;51.3
57374;BME280;43964;53.890;25.340;2022-07-05T22:00:34;1024.4;;;21.5;52
57374;BME280;43964;53.890;25.340;2022-07-05T22:05:34;1024.3;;;21.4;52.9
57374;BME280;43964;53.890;25.340;2022-07-05T22:10:34;1024.3;;;21.3;53
57374;BME280;43964;53.890;25.340;2022-07-05T22:15:34;1024.3;;;21.2;53.7
57374;BME280;43964;53.890;25.340;2022-07-05T22:20:34;1024.3;;;21.2;53.7
57374;BME280;43964;53.890;25.340;2022-07-05T22:25:34;1024.3;;;21.2;53.7
57374;BME280;43964;53.890;25.340;2022-07-05T22:30:34;1024.3;;;21.1;52.9
57374;BME280;43964;53.890;25.340;2022-07-05T22:35:34;1024.3;;;21;53.8
57374;BME280;43964;53.890;25.340;2022-07-05T22:40:35;1024.2;;;21;53.3
57374;BME280;43964;53.890;25.340;2022-07-05T22:45:34;1024.2;;;21;52.9
57374;BME280;43964;53.890;25.340;2022-07-05T22:50:34;1024.2;;;20.9;53.3
57374;BME280;43964;53.890;25.340;2022-07-05T22:55:34;1024.1;;;20.9;52.9
57374;BME280;43964;53.890;25.340;2022-07-05T23:00:36;1024.2;;;20.8;53.1
57374;BME280;43964;53.890;25.340;2022-07-05T23:05:34;1024.2;;;21;53.4
57374;BME280;43964;53.890;25.340;2022-07-05T23:10:34;1024.1;;;20.9;53
57374;BME280;43964;53.890;25.340;2022-07-05T23:15:34;1024.1;;;20.9;53.3
57374;BME280;43964;53.890;25.340;2022-07-05T23:20:34;1024.1;;;20.8;53.5
57374;BME280;43964;53.890;25.340;2022-07-05T23:25:34;1024.1;;;20.9;53.1
57374;BME280;43964;53.890;25.340;2022-07-05T23:30:34;1024;;;20.9;53.3
57374;BME280;43964;53.890;25.340;2022-07-05T23:35:34;1024;;;20.7;53.9
57374;BME280;43964;53.890;25.340;2022-07-05T23:40:34;1023.9;;;20.7;54.2
57374;BME280;43964;53.890;25.340;2022-07-05T23:45:34;1023.9;;;20.7;54.3
57374;BME280;43964;53.890;25.340;2022-07-05T23:50:34;1023.8;;;20.6;53.9
57374;BME280;43964;53.890;25.340;2022-07-05T23:55:34;1023.8;;;20.5;53.8
